sensor_id;sensor_type;location;lat;lon;timestamp;P1;durP1;ratioP1;P2;durP2;ratioP2
7661;SDS011;30314;48.184;11.510;2023-11-19T00:00:07;3.33;;;1.70;;
7661;SDS011;30314;48.184;11.510;2023-11-19T00:02:38;3.00;;;1.40;;
7661;SDS011;30314;48.184;11.510;2023-11-19T00:05:05;2.90;;;1.97;;
7661;SDS011;30314;48.184;11.510;2023-11-19T00:07:35;3.20;;;2.17;;
7661;SDS011;30314;48.184;11.510;2023-11-19T00:10:03;2.60;;;1.83;;
7661;SDS011;30314;48.184;11.510;2023-11-19T00:12:33;3.00;;;1.67;;
7661;SDS011;30314;48.184;11.510;2023-11-19T00:15:00;2.77;;;1.80;;
7661;SDS011;30314;48.184;11.510;2023-11-19T00:17:26;3.70;;;2.10;;
7661;SDS011;30314;48.184;11.510;2023-11-19T00:19:53;3.80;;;2.40;;
7661;SDS011;30314;48.184;11.510;2023-11-19T00:22:20;3.60;;;2.47;;
7661;SDS011;30314;48.184;11.510;2023-11-19T00:24:48;5.20;;;2.53;;
7661;SDS011;30314;48.184;11.510;2023-11-19T00:27:14;4.17;;;1.97;;
7661;SDS011;30314;48.184;11.510;2023-11-19T00:29:42;3.13;;;1.73;;
7661;SDS011;30314;48.184;11.510;2023-11-19T00:32:11;2.50;;;1.67;;
7661;SDS011;30314;48.184;11.510;2023-11-19T00:34:38;1.90;;;1.60;;
7661;SDS011;30314;48.184;11.510;2023-11-19T00:37:05;3.00;;;2.17;;
7661;SDS011;30314;48.184;11.510;2023-11-19T00:39:31;3.47;;;1.70;;
7661;SDS011;30314;48.184;11.510;2023-11-19T00:41:58;2.30;;;1.80;;
7661;SDS011;30314;48.184;11.510;2023-11-19T00:44:24;2.83;;;1.83;;
7661;SDS011;30314;48.184;11.510;2023-11-19T00:46:51;3.27;;;1.90;;
7661;SDS011;30314;48.184;11.510;2023-11-19T00:49:18;4.30;;;1.67;;
7661;SDS011;30314;48.184;11.510;2023-11-19T00:51:44;2.20;;;1.50;;
7661;SDS011;30314;48.184;11.510;2023-11-19T00:54:11;2.50;;;1.50;;
7661;SDS011;30314;48.184;11.510;2023-11-19T00:56:38;4.93;;;1.90;;
7661;SDS011;30314;48.184;11.510;2023-11-19T00:59:06;2.13;;;1.47;;
7661;SDS011;30314;48.184;11.510;2023-11-19T01:01:32;2.90;;;2.30;;
7661;SDS011;30314;48.184;11.510;2023-11-19T01:03:59;3.20;;;1.67;;
7661;SDS011;30314;48.184;11.510;2023-11-19T01:06:27;1.80;;;1.30;;
7661;SDS011;30314;48.184;11.510;2023-11-19T01:08:54;2.57;;;1.50;;
7661;SDS011;30314;48.184;11.510;2023-11-19T01:11:23;2.67;;;1.60;;
7661;SDS011;30314;48.184;11.510;2023-11-19T01:13:50;2.20;;;1.30;;
7661;SDS011;30314;48.184;11.510;2023-11-19T01:16:18;2.47;;;1.17;;
7661;SDS011;30314;48.184;11.510;2023-11-19T01:18:46;1.20;;;1.03;;
7661;SDS011;30314;48.184;11.510;2023-11-19T01:21:14;4.07;;;1.70;;
7661;SDS011;30314;48.184;11.510;2023-11-19T01:23:41;2.17;;;1.20;;
7661;SDS011;30314;48.184;11.510;2023-11-19T01:26:12;3.13;;;1.53;;
7661;SDS011;30314;48.184;11.510;2023-11-19T01:28:39;2.13;;;1.13;;
7661;SDS011;30314;48.184;11.510;2023-11-19T01:31:17;2.33;;;1.20;;
7661;SDS011;30314;48.184;11.510;2023-11-19T01:33:44;1.73;;;0.97;;
7661;SDS011;30314;48.184;11.510;2023-11-19T01:36:14;3.60;;;1.40;;
7661;SDS011;30314;48.184;11.510;2023-11-19T01:38:41;3.00;;;1.30;;
7661;SDS011;30314;48.184;11.510;2023-11-19T01:41:08;1.90;;;1.33;;
7661;SDS011;30314;48.184;11.510;2023-11-19T01:43:35;1.20;;;0.90;;
7661;SDS011;30314;48.184;11.510;2023-11-19T01:46:05;2.50;;;1.10;;
7661;SDS011;30314;48.184;11.510;2023-11-19T01:48:35;2.00;;;0.70;;
7661;SDS011;30314;48.184;11.510;2023-11-19T01:51:07;1.13;;;0.67;;
7661;SDS011;30314;48.184;11.510;2023-11-19T01:53:36;2.07;;;0.80;;
7661;SDS011;30314;48.184;11.510;2023-11-19T01:56:04;1.57;;;0.70;;
7661;SDS011;30314;48.184;11.510;2023-11-19T01:58:37;1.30;;;0.80;;
7661;SDS011;30314;48.184;11.510;2023-11-19T02:01:06;1.57;;;0.80;;
7661;SDS011;30314;48.184;11.510;2023-11-19T02:03:33;1.73;;;0.57;;
7661;SDS011;30314;48.184;11.510;2023-11-19T02:06:00;1.87;;;0.67;;
7661;SDS011;30314;48.184;11.510;2023-11-19T02:08:27;2.00;;;0.87;;
7661;SDS011;30314;48.184;11.510;2023-11-19T02:10:56;1.27;;;0.70;;
7661;SDS011;30314;48.184;11.510;2023-11-19T02:13:26;12.73;;;1.20;;
7661;SDS011;30314;48.184;11.510;2023-11-19T02:15:54;2.90;;;0.90;;
7661;SDS011;30314;48.184;11.510;2023-11-19T02:18:23;2.33;;;0.93;;
7661;SDS011;30314;48.184;11.510;2023-11-19T02:20:54;1.60;;;0.77;;
7661;SDS011;30314;48.184;11.510;2023-11-19T02:23:22;1.83;;;0.93;;
7661;SDS011;30314;48.184;11.510;2023-11-19T02:28:44;2.90;;;1.57;;
7661;SDS011;30314;48.184;11.510;2023-11-19T02:31:11;1.40;;;0.67;;
7661;SDS011;30314;48.184;11.510;2023-11-19T02:33:38;1.47;;;0.87;;
7661;SDS011;30314;48.184;11.510;2023-11-19T02:36:06;1.27;;;0.83;;
7661;SDS011;30314;48.184;11.510;2023-11-19T02:38:34;1.47;;;0.80;;
7661;SDS011;30314;48.184;11.510;2023-11-19T02:41:06;1.63;;;0.70;;
7661;SDS011;30314;48.184;11.510;2023-11-19T02:43:33;1.20;;;0.60;;
7661;SDS011;30314;48.184;11.510;2023-11-19T02:46:01;1.57;;;0.70;;
7661;SDS011;30314;48.184;11.510;2023-11-19T02:48:36;3.50;;;0.90;;
7661;SDS011;30314;48.184;11.510;2023-11-19T02:51:05;1.80;;;0.90;;
7661;SDS011;30314;48.184;11.510;2023-11-19T02:53:36;1.50;;;0.90;;
7661;SDS011;30314;48.184;11.510;2023-11-19T02:56:07;7.80;;;1.10;;
7661;SDS011;30314;48.184;11.510;2023-11-19T02:58:52;1.33;;;0.70;;
7661;SDS011;30314;48.184;11.510;2023-11-19T03:01:25;1.43;;;0.67;;
7661;SDS011;30314;48.184;11.510;2023-11-19T03:04:00;1.10;;;0.70;;
7661;SDS011;30314;48.184;11.510;2023-11-19T03:06:28;1.30;;;0.50;;
7661;SDS011;30314;48.184;11.510;2023-11-19T03:08:55;1.63;;;0.77;;
7661;SDS011;30314;48.184;11.510;2023-11-19T03:11:22;1.33;;;0.63;;
7661;SDS011;30314;48.184;11.510;2023-11-19T03:13:48;1.53;;;0.67;;
7661;SDS011;30314;48.184;11.510;2023-11-19T03:16:15;3.43;;;0.90;;
7661;SDS011;30314;48.184;11.510;2023-11-19T03:18:43;2.07;;;0.60;;
7661;SDS011;30314;48.184;11.510;2023-11-19T03:21:10;1.53;;;0.57;;
7661;SDS011;30314;48.184;11.510;2023-11-19T03:23:36;0.97;;;0.47;;
7661;SDS011;30314;48.184;11.510;2023-11-19T03:26:03;1.10;;;0.43;;
7661;SDS011;30314;48.184;11.510;2023-11-19T03:28:32;2.20;;;0.50;;
7661;SDS011;30314;48.184;11.510;2023-11-19T03:30:58;1.10;;;0.40;;
7661;SDS011;30314;48.184;11.510;2023-11-19T03:33:25;0.90;;;0.30;;
7661;SDS011;30314;48.184;11.510;2023-11-19T03:35:56;1.23;;;0.30;;
7661;SDS011;30314;48.184;11.510;2023-11-19T03:38:23;1.20;;;0.47;;
7661;SDS011;30314;48.184;11.510;2023-11-19T03:40:53;0.83;;;0.47;;
7661;SDS011;30314;48.184;11.510;2023-11-19T03:43:20;1.27;;;0.50;;
7661;SDS011;30314;48.184;11.510;2023-11-19T03:45:46;0.80;;;0.30;;
7661;SDS011;30314;48.184;11.510;2023-11-19T03:48:13;0.80;;;0.20;;
7661;SDS011;30314;48.184;11.510;2023-11-19T03:50:42;1.00;;;0.40;;
7661;SDS011;30314;48.184;11.510;2023-11-19T03:53:11;1.07;;;0.50;;
7661;SDS011;30314;48.184;11.510;2023-11-19T03:55:38;1.60;;;0.90;;
7661;SDS011;30314;48.184;11.510;2023-11-19T03:58:04;1.03;;;0.47;;
7661;SDS011;30314;48.184;11.510;2023-11-19T04:00:31;0.80;;;0.30;;
7661;SDS011;30314;48.184;11.510;2023-11-19T04:02:58;1.13;;;0.40;;
7661;SDS011;30314;48.184;11.510;2023-11-19T04:05:25;0.97;;;0.37;;
7661;SDS011;30314;48.184;11.510;2023-11-19T04:07:51;1.00;;;0.20;;
7661;SDS011;30314;48.184;11.510;2023-11-19T04:10:18;2.33;;;0.60;;
7661;SDS011;30314;48.184;11.510;2023-11-19T04:12:45;1.33;;;0.37;;
7661;SDS011;30314;48.184;11.510;2023-11-19T04:15:12;0.70;;;0.20;;
7661;SDS011;30314;48.184;11.510;2023-11-19T04:17:38;0.90;;;0.40;;
7661;SDS011;30314;48.184;11.510;2023-11-19T04:20:05;2.10;;;1.07;;
7661;SDS011;30314;48.184;11.510;2023-11-19T04:25:28;1.03;;;0.30;;
7661;SDS011;30314;48.184;11.510;2023-11-19T04:27:55;2.20;;;0.37;;
7661;SDS011;30314;48.184;11.510;2023-11-19T04:30:22;1.10;;;0.40;;
7661;SDS011;30314;48.184;11.510;2023-11-19T04:32:49;1.20;;;0.50;;
7661;SDS011;30314;48.184;11.510;2023-11-19T04:35:16;0.80;;;0.30;;
7661;SDS011;30314;48.184;11.510;2023-11-19T04:37:43;0.83;;;0.30;;
7661;SDS011;30314;48.184;11.510;2023-11-19T04:40:10;1.30;;;0.77;;
7661;SDS011;30314;48.184;11.510;2023-11-19T04:42:38;1.40;;;0.37;;
7661;SDS011;30314;48.184;11.510;2023-11-19T04:45:07;0.83;;;0.30;;
7661;SDS011;30314;48.184;11.510;2023-11-19T04:47:36;1.00;;;0.50;;
7661;SDS011;30314;48.184;11.510;2023-11-19T04:50:03;2.03;;;0.90;;
7661;SDS011;30314;48.184;11.510;2023-11-19T04:52:30;1.10;;;0.50;;
7661;SDS011;30314;48.184;11.510;2023-11-19T04:54:57;1.10;;;0.70;;
7661;SDS011;30314;48.184;11.510;2023-11-19T04:57:23;1.20;;;0.40;;
7661;SDS011;30314;48.184;11.510;2023-11-19T04:59:50;2.70;;;0.80;;
7661;SDS011;30314;48.184;11.510;2023-11-19T05:02:17;1.03;;;0.43;;
7661;SDS011;30314;48.184;11.510;2023-11-19T05:04:43;0.90;;;0.43;;
7661;SDS011;30314;48.184;11.510;2023-11-19T05:07:16;0.97;;;0.40;;
7661;SDS011;30314;48.184;11.510;2023-11-19T05:09:42;0.70;;;0.20;;
7661;SDS011;30314;48.184;11.510;2023-11-19T05:12:09;1.33;;;0.53;;
7661;SDS011;30314;48.184;11.510;2023-11-19T05:14:38;1.33;;;0.40;;
7661;SDS011;30314;48.184;11.510;2023-11-19T05:17:04;1.53;;;0.40;;
7661;SDS011;30314;48.184;11.510;2023-11-19T05:19:31;2.50;;;0.40;;
7661;SDS011;30314;48.184;11.510;2023-11-19T05:21:58;1.67;;;0.50;;
7661;SDS011;30314;48.184;11.510;2023-11-19T05:24:24;0.90;;;0.30;;
7661;SDS011;30314;48.184;11.510;2023-11-19T05:26:51;1.47;;;0.77;;
7661;SDS011;30314;48.184;11.510;2023-11-19T05:29:18;1.43;;;0.40;;
7661;SDS011;30314;48.184;11.510;2023-11-19T05:31:45;1.47;;;0.50;;
7661;SDS011;30314;48.184;11.510;2023-11-19T05:34:11;1.17;;;0.67;;
7661;SDS011;30314;48.184;11.510;2023-11-19T05:36:38;2.30;;;0.70;;
7661;SDS011;30314;48.184;11.510;2023-11-19T05:39:06;1.00;;;0.40;;
7661;SDS011;30314;48.184;11.510;2023-11-19T05:41:32;1.10;;;0.50;;
7661;SDS011;30314;48.184;11.510;2023-11-19T05:43:59;2.60;;;0.50;;
7661;SDS011;30314;48.184;11.510;2023-11-19T05:46:26;1.00;;;0.40;;
7661;SDS011;30314;48.184;11.510;2023-11-19T05:48:53;1.20;;;0.60;;
7661;SDS011;30314;48.184;11.510;2023-11-19T05:51:20;1.17;;;0.30;;
7661;SDS011;30314;48.184;11.510;2023-11-19T05:53:47;1.10;;;0.30;;
7661;SDS011;30314;48.184;11.510;2023-11-19T05:56:14;0.80;;;0.30;;
7661;SDS011;30314;48.184;11.510;2023-11-19T05:58:42;0.80;;;0.30;;
7661;SDS011;30314;48.184;11.510;2023-11-19T06:01:11;2.07;;;0.60;;
7661;SDS011;30314;48.184;11.510;2023-11-19T06:03:37;0.90;;;0.50;;
7661;SDS011;30314;48.184;11.510;2023-11-19T06:06:05;0.90;;;0.30;;
7661;SDS011;30314;48.184;11.510;2023-11-19T06:08:32;1.40;;;0.30;;
7661;SDS011;30314;48.184;11.510;2023-11-19T06:10:59;1.57;;;0.70;;
7661;SDS011;30314;48.184;11.510;2023-11-19T06:13:27;1.00;;;0.40;;
7661;SDS011;30314;48.184;11.510;2023-11-19T06:15:57;1.00;;;0.30;;
7661;SDS011;30314;48.184;11.510;2023-11-19T06:18:24;0.80;;;0.40;;
7661;SDS011;30314;48.184;11.510;2023-11-19T06:20:51;1.43;;;0.83;;
7661;SDS011;30314;48.184;11.510;2023-11-19T06:23:18;1.00;;;0.40;;
7661;SDS011;30314;48.184;11.510;2023-11-19T06:25:45;0.90;;;0.33;;
7661;SDS011;30314;48.184;11.510;2023-11-19T06:28:12;0.80;;;0.40;;
7661;SDS011;30314;48.184;11.510;2023-11-19T06:30:39;2.13;;;0.47;;
7661;SDS011;30314;48.184;11.510;2023-11-19T06:33:07;2.30;;;0.40;;
7661;SDS011;30314;48.184;11.510;2023-11-19T06:35:34;0.90;;;0.40;;
7661;SDS011;30314;48.184;11.510;2023-11-19T06:38:04;0.87;;;0.40;;
7661;SDS011;30314;48.184;11.510;2023-11-19T06:40:31;1.13;;;0.40;;
7661;SDS011;30314;48.184;11.510;2023-11-19T06:42:59;0.97;;;0.30;;
7661;SDS011;30314;48.184;11.510;2023-11-19T06:45:26;1.03;;;0.30;;
7661;SDS011;30314;48.184;11.510;2023-11-19T06:47:52;1.10;;;0.40;;
7661;SDS011;30314;48.184;11.510;2023-11-19T06:50:19;0.80;;;0.30;;
7661;SDS011;30314;48.184;11.510;2023-11-19T06:52:46;1.23;;;0.40;;
7661;SDS011;30314;48.184;11.510;2023-11-19T06:55:13;2.10;;;0.30;;
7661;SDS011;30314;48.184;11.510;2023-11-19T06:57:40;0.90;;;0.50;;
7661;SDS011;30314;48.184;11.510;2023-11-19T07:00:06;0.70;;;0.30;;
7661;SDS011;30314;48.184;11.510;2023-11-19T07:02:34;0.90;;;0.30;;
7661;SDS011;30314;48.184;11.510;2023-11-19T07:05:02;1.00;;;0.27;;
7661;SDS011;30314;48.184;11.510;2023-11-19T07:07:31;0.90;;;0.20;;
7661;SDS011;30314;48.184;11.510;2023-11-19T07:09:59;0.80;;;0.30;;
7661;SDS011;30314;48.184;11.510;2023-11-19T07:12:25;1.10;;;0.50;;
7661;SDS011;30314;48.184;11.510;2023-11-19T07:14:53;1.50;;;0.47;;
7661;SDS011;30314;48.184;11.510;2023-11-19T07:17:19;0.80;;;0.40;;
7661;SDS011;30314;48.184;11.510;2023-11-19T07:19:46;0.83;;;0.40;;
7661;SDS011;30314;48.184;11.510;2023-11-19T07:22:15;1.00;;;0.50;;
7661;SDS011;30314;48.184;11.510;2023-11-19T07:24:42;1.10;;;0.30;;
7661;SDS011;30314;48.184;11.510;2023-11-19T07:27:09;1.47;;;0.30;;
7661;SDS011;30314;48.184;11.510;2023-11-19T07:29:36;1.23;;;0.30;;
7661;SDS011;30314;48.184;11.510;2023-11-19T07:32:04;1.07;;;0.30;;
7661;SDS011;30314;48.184;11.510;2023-11-19T07:34:31;0.97;;;0.30;;
7661;SDS011;30314;48.184;11.510;2023-11-19T07:36:58;1.53;;;0.20;;
7661;SDS011;30314;48.184;11.510;2023-11-19T07:39:28;1.33;;;0.30;;
7661;SDS011;30314;48.184;11.510;2023-11-19T07:41:55;0.73;;;0.30;;
7661;SDS011;30314;48.184;11.510;2023-11-19T07:44:22;1.10;;;0.20;;
7661;SDS011;30314;48.184;11.510;2023-11-19T07:46:48;0.90;;;0.30;;
7661;SDS011;30314;48.184;11.510;2023-11-19T07:49:15;0.70;;;0.30;;
7661;SDS011;30314;48.184;11.510;2023-11-19T07:51:42;1.00;;;0.47;;
7661;SDS011;30314;48.184;11.510;2023-11-19T07:54:08;0.70;;;0.30;;
7661;SDS011;30314;48.184;11.510;2023-11-19T07:56:35;0.80;;;0.27;;
7661;SDS011;30314;48.184;11.510;2023-11-19T07:59:02;0.90;;;0.40;;
7661;SDS011;30314;48.184;11.510;2023-11-19T08:01:29;0.80;;;0.33;;
7661;SDS011;30314;48.184;11.510;2023-11-19T08:03:56;0.83;;;0.30;;
7661;SDS011;30314;48.184;11.510;2023-11-19T08:06:25;0.70;;;0.20;;
7661;SDS011;30314;48.184;11.510;2023-11-19T08:08:51;1.07;;;0.23;;
7661;SDS011;30314;48.184;11.510;2023-11-19T08:11:18;0.90;;;0.30;;
7661;SDS011;30314;48.184;11.510;2023-11-19T08:13:46;3.83;;;0.37;;
7661;SDS011;30314;48.184;11.510;2023-11-19T08:16:13;0.90;;;0.33;;
7661;SDS011;30314;48.184;11.510;2023-11-19T08:18:42;1.10;;;0.40;;
7661;SDS011;30314;48.184;11.510;2023-11-19T08:21:09;0.77;;;0.27;;
7661;SDS011;30314;48.184;11.510;2023-11-19T08:23:37;0.70;;;0.33;;
7661;SDS011;30314;48.184;11.510;2023-11-19T08:26:05;2.03;;;0.40;;
7661;SDS011;30314;48.184;11.510;2023-11-19T08:28:32;0.90;;;0.40;;
7661;SDS011;30314;48.184;11.510;2023-11-19T08:31:01;1.57;;;0.40;;
7661;SDS011;30314;48.184;11.510;2023-11-19T08:33:30;0.90;;;0.30;;
7661;SDS011;30314;48.184;11.510;2023-11-19T08:35:58;1.10;;;0.50;;
7661;SDS011;30314;48.184;11.510;2023-11-19T08:38:25;1.00;;;0.60;;
7661;SDS011;30314;48.184;11.510;2023-11-19T08:40:54;1.37;;;0.67;;
7661;SDS011;30314;48.184;11.510;2023-11-19T08:43:26;1.30;;;0.40;;
7661;SDS011;30314;48.184;11.510;2023-11-19T08:45:53;1.00;;;0.30;;
7661;SDS011;30314;48.184;11.510;2023-11-19T08:48:20;1.00;;;0.40;;
7661;SDS011;30314;48.184;11.510;2023-11-19T08:50:47;0.83;;;0.40;;
7661;SDS011;30314;48.184;11.510;2023-11-19T08:53:13;1.30;;;0.37;;
7661;SDS011;30314;48.184;11.510;2023-11-19T08:55:40;3.43;;;1.43;;
7661;SDS011;30314;48.184;11.510;2023-11-19T08:58:07;5.67;;;3.70;;
7661;SDS011;30314;48.184;11.510;2023-11-19T09:00:33;6.20;;;3.70;;
7661;SDS011;30314;48.184;11.510;2023-11-19T09:03:00;1.80;;;1.63;;
7661;SDS011;30314;48.184;11.510;2023-11-19T09:05:27;1.10;;;0.63;;
7661;SDS011;30314;48.184;11.510;2023-11-19T09:07:53;1.00;;;0.50;;
7661;SDS011;30314;48.184;11.510;2023-11-19T09:10:21;0.70;;;0.30;;
7661;SDS011;30314;48.184;11.510;2023-11-19T09:12:47;1.17;;;0.53;;
7661;SDS011;30314;48.184;11.510;2023-11-19T09:15:14;1.83;;;0.43;;
7661;SDS011;30314;48.184;11.510;2023-11-19T09:17:41;0.93;;;0.37;;
7661;SDS011;30314;48.184;11.510;2023-11-19T09:20:07;0.90;;;0.53;;
7661;SDS011;30314;48.184;11.510;2023-11-19T09:22:38;4.00;;;0.60;;
7661;SDS011;30314;48.184;11.510;2023-11-19T09:25:04;1.83;;;0.43;;
7661;SDS011;30314;48.184;11.510;2023-11-19T09:27:31;1.10;;;0.50;;
7661;SDS011;30314;48.184;11.510;2023-11-19T09:29:58;2.23;;;0.40;;
7661;SDS011;30314;48.184;11.510;2023-11-19T09:32:25;1.50;;;0.30;;
7661;SDS011;30314;48.184;11.510;2023-11-19T09:34:51;0.93;;;0.30;;
7661;SDS011;30314;48.184;11.510;2023-11-19T09:37:18;1.23;;;0.50;;
7661;SDS011;30314;48.184;11.510;2023-11-19T09:39:48;1.00;;;0.40;;
7661;SDS011;30314;48.184;11.510;2023-11-19T09:42:14;1.07;;;0.40;;
7661;SDS011;30314;48.184;11.510;2023-11-19T09:44:42;0.90;;;0.40;;
7661;SDS011;30314;48.184;11.510;2023-11-19T09:47:10;0.87;;;0.40;;
7661;SDS011;30314;48.184;11.510;2023-11-19T09:49:38;0.83;;;0.30;;
7661;SDS011;30314;48.184;11.510;2023-11-19T09:52:05;0.80;;;0.30;;
7661;SDS011;30314;48.184;11.510;2023-11-19T09:54:31;1.63;;;0.50;;
7661;SDS011;30314;48.184;11.510;2023-11-19T09:56:58;1.30;;;0.43;;
7661;SDS011;30314;48.184;11.510;2023-11-19T09:59:30;0.97;;;0.37;;
7661;SDS011;30314;48.184;11.510;2023-11-19T10:01:58;2.37;;;0.57;;
7661;SDS011;30314;48.184;11.510;2023-11-19T10:04:26;0.90;;;0.40;;
7661;SDS011;30314;48.184;11.510;2023-11-19T10:06:56;1.10;;;0.43;;
7661;SDS011;30314;48.184;11.510;2023-11-19T10:09:23;1.30;;;0.37;;
7661;SDS011;30314;48.184;11.510;2023-11-19T10:11:50;1.00;;;0.30;;
7661;SDS011;30314;48.184;11.510;2023-11-19T10:14:18;0.90;;;0.40;;
7661;SDS011;30314;48.184;11.510;2023-11-19T10:16:49;1.70;;;0.60;;
7661;SDS011;30314;48.184;11.510;2023-11-19T10:19:19;1.20;;;0.47;;
7661;SDS011;30314;48.184;11.510;2023-11-19T10:21:49;1.83;;;0.67;;
7661;SDS011;30314;48.184;11.510;2023-11-19T10:27:06;0.80;;;0.30;;
7661;SDS011;30314;48.184;11.510;2023-11-19T10:29:37;1.93;;;1.73;;
7661;SDS011;30314;48.184;11.510;2023-11-19T10:32:04;1.77;;;0.67;;
7661;SDS011;30314;48.184;11.510;2023-11-19T10:34:51;1.10;;;0.43;;
7661;SDS011;30314;48.184;11.510;2023-11-19T10:37:29;0.70;;;0.20;;
7661;SDS011;30314;48.184;11.510;2023-11-19T10:39:58;1.80;;;0.70;;
7661;SDS011;30314;48.184;11.510;2023-11-19T10:42:25;1.47;;;0.40;;
7661;SDS011;30314;48.184;11.510;2023-11-19T10:44:52;0.80;;;0.30;;
7661;SDS011;30314;48.184;11.510;2023-11-19T10:47:19;1.53;;;0.40;;
7661;SDS011;30314;48.184;11.510;2023-11-19T10:50:03;0.80;;;0.40;;
7661;SDS011;30314;48.184;11.510;2023-11-19T10:52:31;1.10;;;0.60;;
7661;SDS011;30314;48.184;11.510;2023-11-19T10:54:58;1.00;;;0.40;;
7661;SDS011;30314;48.184;11.510;2023-11-19T10:57:27;1.07;;;0.50;;
7661;SDS011;30314;48.184;11.510;2023-11-19T11:00:00;2.93;;;0.40;;
7661;SDS011;30314;48.184;11.510;2023-11-19T11:02:29;2.13;;;0.20;;
7661;SDS011;30314;48.184;11.510;2023-11-19T11:05:05;2.17;;;0.40;;
7661;SDS011;30314;48.184;11.510;2023-11-19T11:07:32;1.00;;;0.30;;
7661;SDS011;30314;48.184;11.510;2023-11-19T11:10:07;2.07;;;0.50;;
7661;SDS011;30314;48.184;11.510;2023-11-19T11:12:36;0.80;;;0.30;;
7661;SDS011;30314;48.184;11.510;2023-11-19T11:15:04;1.47;;;0.40;;
7661;SDS011;30314;48.184;11.510;2023-11-19T11:17:32;0.80;;;0.30;;
7661;SDS011;30314;48.184;11.510;2023-11-19T11:20:00;0.87;;;0.30;;
7661;SDS011;30314;48.184;11.510;2023-11-19T11:22:28;7.23;;;0.60;;
7661;SDS011;30314;48.184;11.510;2023-11-19T11:28:10;1.57;;;0.30;;
7661;SDS011;30314;48.184;11.510;2023-11-19T11:31:01;0.90;;;0.30;;
7661;SDS011;30314;48.184;11.510;2023-11-19T11:36:28;1.07;;;0.50;;
7661;SDS011;30314;48.184;11.510;2023-11-19T11:39:04;0.70;;;0.30;;
7661;SDS011;30314;48.184;11.510;2023-11-19T11:41:34;0.70;;;0.23;;
7661;SDS011;30314;48.184;11.510;2023-11-19T11:44:01;0.80;;;0.40;;
7661;SDS011;30314;48.184;11.510;2023-11-19T11:49:01;1.00;;;0.50;;
7661;SDS011;30314;48.184;11.510;2023-11-19T11:54:25;0.80;;;0.30;;
7661;SDS011;30314;48.184;11.510;2023-11-19T12:02:09;0.80;;;0.30;;
7661;SDS011;30314;48.184;11.510;2023-11-19T12:04:36;0.90;;;0.30;;
7661;SDS011;30314;48.184;11.510;2023-11-19T12:07:08;0.80;;;0.30;;
7661;SDS011;30314;48.184;11.510;2023-11-19T12:09:45;4.53;;;0.63;;
7661;SDS011;30314;48.184;11.510;2023-11-19T12:12:17;0.80;;;0.27;;
7661;SDS011;30314;48.184;11.510;2023-11-19T12:15:05;0.70;;;0.20;;
7661;SDS011;30314;48.184;11.510;2023-11-19T12:20:19;0.80;;;0.23;;
7661;SDS011;30314;48.184;11.510;2023-11-19T12:22:50;0.70;;;0.30;;
7661;SDS011;30314;48.184;11.510;2023-11-19T12:25:18;0.70;;;0.30;;
7661;SDS011;30314;48.184;11.510;2023-11-19T12:27:50;1.10;;;0.20;;
7661;SDS011;30314;48.184;11.510;2023-11-19T12:30:21;1.03;;;0.20;;
7661;SDS011;30314;48.184;11.510;2023-11-19T12:32:50;1.00;;;0.20;;
7661;SDS011;30314;48.184;11.510;2023-11-19T12:35:17;0.80;;;0.30;;
7661;SDS011;30314;48.184;11.510;2023-11-19T12:37:44;3.60;;;0.30;;
7661;SDS011;30314;48.184;11.510;2023-11-19T12:42:46;0.93;;;0.20;;
7661;SDS011;30314;48.184;11.510;2023-11-19T12:45:17;0.90;;;0.30;;
7661;SDS011;30314;48.184;11.510;2023-11-19T12:47:45;0.90;;;0.40;;
7661;SDS011;30314;48.184;11.510;2023-11-19T12:50:17;2.13;;;0.30;;
7661;SDS011;30314;48.184;11.510;2023-11-19T12:52:57;2.13;;;0.20;;
7661;SDS011;30314;48.184;11.510;2023-11-19T12:55:25;0.87;;;0.37;;
7661;SDS011;30314;48.184;11.510;2023-11-19T12:57:56;1.57;;;0.33;;
7661;SDS011;30314;48.184;11.510;2023-11-19T13:00:24;0.90;;;0.20;;
7661;SDS011;30314;48.184;11.510;2023-11-19T13:02:53;0.80;;;0.30;;
7661;SDS011;30314;48.184;11.510;2023-11-19T13:05:28;1.67;;;0.40;;
7661;SDS011;30314;48.184;11.510;2023-11-19T13:07:58;1.70;;;0.23;;
7661;SDS011;30314;48.184;11.510;2023-11-19T13:10:27;0.90;;;0.33;;
7661;SDS011;30314;48.184;11.510;2023-11-19T13:13:00;0.80;;;0.30;;
7661;SDS011;30314;48.184;11.510;2023-11-19T13:15:32;0.70;;;0.23;;
7661;SDS011;30314;48.184;11.510;2023-11-19T13:17:59;1.10;;;0.40;;
7661;SDS011;30314;48.184;11.510;2023-11-19T13:20:27;0.63;;;0.20;;
7661;SDS011;30314;48.184;11.510;2023-11-19T13:23:00;1.07;;;0.53;;
7661;SDS011;30314;48.184;11.510;2023-11-19T13:25:30;1.20;;;0.30;;
7661;SDS011;30314;48.184;11.510;2023-11-19T13:27:58;0.80;;;0.30;;
7661;SDS011;30314;48.184;11.510;2023-11-19T13:30:25;1.93;;;0.30;;
7661;SDS011;30314;48.184;11.510;2023-11-19T13:32:54;0.70;;;0.30;;
7661;SDS011;30314;48.184;11.510;2023-11-19T13:35:23;1.17;;;0.50;;
7661;SDS011;30314;48.184;11.510;2023-11-19T13:37:51;1.07;;;0.27;;
7661;SDS011;30314;48.184;11.510;2023-11-19T13:40:18;0.77;;;0.23;;
7661;SDS011;30314;48.184;11.510;2023-11-19T13:42:46;0.90;;;0.40;;
7661;SDS011;30314;48.184;11.510;2023-11-19T13:45:13;1.00;;;0.30;;
7661;SDS011;30314;48.184;11.510;2023-11-19T13:47:41;1.80;;;0.50;;
7661;SDS011;30314;48.184;11.510;2023-11-19T13:50:13;1.00;;;0.30;;
7661;SDS011;30314;48.184;11.510;2023-11-19T13:52:41;0.97;;;0.30;;
7661;SDS011;30314;48.184;11.510;2023-11-19T13:55:11;0.90;;;0.23;;
7661;SDS011;30314;48.184;11.510;2023-11-19T13:57:39;1.20;;;0.30;;
7661;SDS011;30314;48.184;11.510;2023-11-19T14:00:07;1.57;;;0.60;;
7661;SDS011;30314;48.184;11.510;2023-11-19T14:02:40;1.17;;;0.30;;
7661;SDS011;30314;48.184;11.510;2023-11-19T14:05:07;0.80;;;0.30;;
7661;SDS011;30314;48.184;11.510;2023-11-19T14:07:34;1.23;;;0.50;;
7661;SDS011;30314;48.184;11.510;2023-11-19T14:10:01;1.10;;;0.30;;
7661;SDS011;30314;48.184;11.510;2023-11-19T14:12:28;1.30;;;0.50;;
7661;SDS011;30314;48.184;11.510;2023-11-19T14:14:55;1.13;;;0.30;;
7661;SDS011;30314;48.184;11.510;2023-11-19T14:17:21;3.60;;;0.50;;
7661;SDS011;30314;48.184;11.510;2023-11-19T14:19:48;1.87;;;0.43;;
7661;SDS011;30314;48.184;11.510;2023-11-19T14:22:15;0.90;;;0.40;;
7661;SDS011;30314;48.184;11.510;2023-11-19T14:24:41;1.10;;;0.37;;
7661;SDS011;30314;48.184;11.510;2023-11-19T14:27:09;1.10;;;0.47;;
7661;SDS011;30314;48.184;11.510;2023-11-19T14:29:37;1.83;;;0.50;;
7661;SDS011;30314;48.184;11.510;2023-11-19T14:32:03;0.70;;;0.30;;
7661;SDS011;30314;48.184;11.510;2023-11-19T14:34:30;1.97;;;0.30;;
7661;SDS011;30314;48.184;11.510;2023-11-19T14:36:58;1.43;;;0.40;;
7661;SDS011;30314;48.184;11.510;2023-11-19T14:39:26;1.67;;;0.30;;
7661;SDS011;30314;48.184;11.510;2023-11-19T14:41:53;1.47;;;0.50;;
7661;SDS011;30314;48.184;11.510;2023-11-19T14:44:24;0.90;;;0.40;;
7661;SDS011;30314;48.184;11.510;2023-11-19T14:46:50;1.43;;;0.60;;
7661;SDS011;30314;48.184;11.510;2023-11-19T14:49:17;0.90;;;0.60;;
7661;SDS011;30314;48.184;11.510;2023-11-19T14:51:44;3.03;;;0.40;;
7661;SDS011;30314;48.184;11.510;2023-11-19T14:54:14;2.30;;;0.70;;
7661;SDS011;30314;48.184;11.510;2023-11-19T14:56:42;0.70;;;0.20;;
7661;SDS011;30314;48.184;11.510;2023-11-19T14:59:09;0.90;;;0.30;;
7661;SDS011;30314;48.184;11.510;2023-11-19T15:01:35;1.57;;;0.30;;
7661;SDS011;30314;48.184;11.510;2023-11-19T15:04:02;1.10;;;0.33;;
7661;SDS011;30314;48.184;11.510;2023-11-19T15:06:32;0.87;;;0.47;;
7661;SDS011;30314;48.184;11.510;2023-11-19T15:09:00;2.50;;;0.40;;
7661;SDS011;30314;48.184;11.510;2023-11-19T15:11:27;0.90;;;0.30;;
7661;SDS011;30314;48.184;11.510;2023-11-19T15:13:53;2.47;;;0.60;;
7661;SDS011;30314;48.184;11.510;2023-11-19T15:16:20;1.53;;;0.70;;
7661;SDS011;30314;48.184;11.510;2023-11-19T15:18:52;1.63;;;0.57;;
7661;SDS011;30314;48.184;11.510;2023-11-19T15:21:19;1.30;;;0.50;;
7661;SDS011;30314;48.184;11.510;2023-11-19T15:23:45;0.97;;;0.40;;